Time;durP1;ratioP1;P1;durP2;ratioP2;P2;SDS_P1;SDS_P2;PMS_P1;PMS_P2;Temp;Humidity;BMP_temperature;BMP_pressure;BME280_temperature;BME280_humidity;BME280_pressure;Samples;Min_cycle;Max_cycle;Signal;HPM_P1;HPM_P2
2021/12/04 00:02:04;;;;;;;8.15;6.53;;;;;;;2.15;100.00;99874.72;5028909;28;20025;-84
2021/12/04 00:04:32;;;;;;;8.65;7.18;;;;;;;2.17;100.00;99867.66;5037960;28;20029;-84
2021/12/04 00:06:58;;;;;;;9.20;6.32;;;;;;;2.16;100.00;99856.28;5031434;28;20433;-85
2021/12/04 00:09:23;;;;;;;7.43;6.03;;;;;;;2.14;100.00;99849.41;5050509;28;20597;-86
2021/12/04 00:11:57;;;;;;;8.35;6.18;;;;;;;2.19;100.00;99858.81;5049983;28;20025;-85
2021/12/04 00:14:23;;;;;;;;;;;;;;;2.23;100.00;99854.34;5032787;28;20276;-86
2021/12/04 00:16:48;;;;;;;8.52;6.32;;;;;;;2.19;100.00;99842.22;5050097;28;20413;-86
2021/12/04 00:19:14;;;;;;;9.93;6.00;;;;;;;2.18;100.00;99832.63;5046779;28;20057;-86
2021/12/04 00:21:39;;;;;;;8.40;6.68;;;;;;;2.20;100.00;99828.19;5031354;28;20182;-86
2021/12/04 00:24:05;;;;;;;6.90;5.90;;;;;;;2.21;100.00;99825.50;5036144;28;20037;-85
2021/12/04 00:26:30;;;;;;;6.97;6.07;;;;;;;2.21;100.00;99815.00;5032542;28;20026;-85
2021/12/04 00:28:55;;;;;;;7.13;6.40;;;;;;;2.21;100.00;99812.38;5031838;28;20026;-85
2021/12/04 00:31:21;;;;;;;7.80;6.43;;;;;;;2.23;100.00;99809.72;5042251;28;20411;-85
2021/12/04 00:33:47;;;;;;;6.28;5.65;;;;;;;2.22;100.00;99803.59;5034546;28;20025;-86
2021/12/04 00:49:54;;;;;;;5.88;5.20;;;;;;;2.26;100.00;99812.25;5050199;28;20400;-85
2021/12/04 00:52:19;;;;;;;6.82;5.35;;;;;;;2.24;100.00;99799.16;5050992;28;20029;-85
2021/12/04 00:54:45;;;;;;;6.95;5.63;;;;;;;2.23;100.00;99788.72;5047174;28;20473;-84
2021/12/04 00:57:11;;;;;;;5.55;4.82;;;;;;;2.24;100.00;99793.88;5049770;28;20032;-85
2021/12/04 00:59:37;;;;;;;6.38;5.57;;;;;;;2.24;100.00;99793.03;5033253;28;20097;-85
2021/12/04 01:02:02;;;;;;;7.85;5.80;;;;;;;2.27;100.00;99795.56;5034359;28;20471;-85
2021/12/04 01:04:27;;;;;;;5.47;4.90;;;;;;;2.25;100.00;99789.50;5033834;28;20064;-86
2021/12/04 01:06:53;;;;;;;5.78;5.05;;;;;;;2.30;100.00;99798.09;5038823;28;20040;-85
2021/12/04 01:09:22;;;;;;;6.40;5.50;;;;;;;2.30;100.00;99794.59;5030518;28;20449;-85
2021/12/04 01:11:49;;;;;;;6.18;5.03;;;;;;;2.27;100.00;99795.56;5039909;28;20049;-86
2021/12/04 01:14:17;;;;;;;6.72;4.90;;;;;;;2.29;100.00;99801.59;5043667;28;20021;-85
2021/12/04 01:16:43;;;;;;;6.40;5.18;;;;;;;2.32;100.00;99798.88;5012904;28;20035;-84
2021/12/04 01:19:09;;;;;;;6.72;5.22;;;;;;;2.27;100.00;99795.56;5040927;28;20299;-85
2021/12/04 01:21:35;;;;;;;6.13;5.53;;;;;;;2.32;100.00;99798.88;5031146;28;20389;-85
2021/12/04 01:24:01;;;;;;;7.05;5.35;;;;;;;2.28;100.00;99797.28;5043876;28;20029;-85
2021/12/04 01:26:26;;;;;;;7.60;5.70;;;;;;;2.28;100.00;99793.78;5034141;28;20083;-85
2021/12/04 01:28:52;;;;;;;6.18;5.47;;;;;;;2.33;100.00;99805.00;5041100;28;20035;-85
2021/12/04 01:31:17;;;;;;;6.07;5.38;;;;;;;2.35;100.00;99801.41;5049983;28;20021;-86
2021/12/04 01:33:43;;;;;;;6.05;4.93;;;;;;;2.34;100.00;99798.81;5048244;28;21504;-85
2021/12/04 01:36:09;;;;;;;6.32;5.10;;;;;;;2.34;100.00;99788.31;5046133;28;20281;-86
2021/12/04 01:38:35;;;;;;;6.63;5.32;;;;;;;2.38;100.00;99796.06;5032157;28;20025;-85
2021/12/04 01:41:03;;;;;;;5.28;4.75;;;;;;;2.36;100.00;99791.78;5042583;28;20490;-85
2021/12/04 01:43:28;;;;;;;6.28;5.68;;;;;;;2.35;100.00;99779.56;5029588;28;20028;-85
2021/12/04 01:45:55;;;;;;;6.97;5.38;;;;;;;2.39;100.00;99786.41;5047928;28;20417;-85
2021/12/04 01:48:20;;;;;;;6.10;5.47;;;;;;;2.30;100.00;99773.59;5031533;28;20347;-86
2021/12/04 01:50:46;;;;;;;6.82;5.43;;;;;;;2.40;100.00;99785.50;5033134;28;20048;-85
2021/12/04 01:53:11;;;;;;;6.40;5.15;;;;;;;2.39;100.00;99786.41;5028625;28;20071;-84
2021/12/04 01:55:37;;;;;;;6.22;5.55;;;;;;;2.41;100.00;99785.44;5046653;28;20029;-85
2021/12/04 01:58:04;;;;;;;6.18;5.57;;;;;;;2.41;100.00;99793.31;5048954;28;20147;-85
2021/12/04 02:00:31;;;;;;;6.35;5.50;;;;;;;2.41;100.00;99785.44;5049149;28;20429;-86
2021/12/04 02:02:57;;;;;;;6.20;5.60;;;;;;;2.37;100.00;99770.69;5048465;28;20115;-85
2021/12/04 02:05:22;;;;;;;5.82;5.22;;;;;;;2.40;100.00;99775.84;5041928;28;20524;-85
2021/12/04 02:07:48;;;;;;;7.22;6.03;;;;;;;2.45;100.00;99767.81;5029056;28;20535;-84
2021/12/04 02:10:14;;;;;;;5.75;5.15;;;;;;;2.39;100.00;99768.91;5028700;28;20041;-85
2021/12/04 02:12:40;;;;;;;6.15;5.43;;;;;;;2.38;100.00;99759.31;5039155;28;20386;-85
2021/12/04 02:15:10;;;;;;;6.22;5.60;;;;;;;2.42;100.00;99766.13;5035479;28;20045;-85
2021/12/04 02:17:35;;;;;;;7.57;5.57;;;;;;;2.43;100.00;99762.63;5034765;28;20033;-85
2021/12/04 02:20:01;;;;;;;8.93;6.20;;;;;;;2.39;100.00;99744.41;5030566;28;20024;-85
2021/12/04 02:22:27;;;;;;;7.38;6.07;;;;;;;2.39;100.00;99733.91;5048578;28;20762;-86
2021/12/04 02:24:52;;;;;;;11.68;6.10;;;;;;;2.43;100.00;99736.38;5036151;28;20017;-85
2021/12/04 02:27:17;;;;;;;7.22;6.10;;;;;;;2.43;100.00;99739.00;5029694;28;20044;-86
2021/12/04 02:29:47;;;;;;;8.25;6.18;;;;;;;2.40;100.00;99723.34;5034110;28;20634;-85
2021/12/04 02:32:14;;;;;;;8.40;6.32;;;;;;;2.44;100.00;99711.81;5028981;28;20279;-85
2021/12/04 02:34:39;;;;;;;7.40;6.00;;;;;;;2.43;100.00;99709.25;5030723;28;20037;-85
2021/12/04 02:37:08;;;;;;;7.65;6.07;;;;;;;2.43;100.00;99707.47;5028810;28;20459;-85
2021/12/04 02:39:35;;;;;;;9.25;6.10;;;;;;;2.39;100.00;99698.00;5034448;28;20151;-85
2021/12/04 02:42:04;;;;;;;7.75;5.85;;;;;;;2.40;100.00;99699.69;5048321;28;20013;-85
2021/12/04 02:44:37;;;;;;;6.93;5.72;;;;;;;2.41;100.00;99701.41;5039068;28;20299;-86
2021/12/04 02:47:02;;;;;;;7.82;6.45;;;;;;;2.40;100.00;99706.72;5046719;28;20386;-86
2021/12/04 02:49:28;;;;;;;7.00;5.82;;;;;;;2.41;100.00;99701.41;5046341;28;20025;-86
2021/12/04 02:51:53;;;;;;;8.73;6.00;;;;;;;2.39;100.00;99695.38;5046576;28;20029;-86
2021/12/04 02:54:19;;;;;;;6.60;5.80;;;;;;;2.40;100.00;99693.59;5043583;28;20048;-86
2021/12/04 02:56:45;;;;;;;7.65;6.30;;;;;;;2.40;100.00;99702.31;5048133;28;20021;-86
2021/12/04 02:59:11;;;;;;;7.05;5.88;;;;;;;2.41;100.00;99705.81;5025858;28;20482;-85
2021/12/04 03:01:38;;;;;;;6.22;5.38;;;;;;;2.40;100.00;99704.94;5034598;28;20025;-85
2021/12/04 03:04:10;;;;;;;6.85;5.65;;;;;;;2.42;100.00;99699.63;5040635;28;20037;-85
2021/12/04 03:06:43;;;;;;;5.63;4.80;;;;;;;2.42;100.00;99697.84;5041682;28;20017;-85
2021/12/04 03:09:08;;;;;;;5.97;5.13;;;;;;;2.40;100.00;99689.19;5041664;28;20036;-85
2021/12/04 03:11:34;;;;;;;5.75;5.15;;;;;;;2.42;100.00;99687.34;5038255;28;20112;-85
2021/12/04 03:14:00;;;;;;;6.45;4.70;;;;;;;2.42;100.00;99687.34;5040990;28;20026;-86
2021/12/04 03:16:25;;;;;;;5.68;4.97;;;;;;;2.43;100.00;99682.97;5047690;28;20470;-86
2021/12/04 03:18:51;;;;;;;4.72;4.28;;;;;;;2.43;100.00;99685.63;5038833;28;20048;-84
2021/12/04 03:21:16;;;;;;;5.15;4.35;;;;;;;2.39;100.00;99670.88;5033665;28;20037;-85
2021/12/04 03:23:52;;;;;;;4.70;4.18;;;;;;;2.42;100.00;99683.88;5041940;28;20029;-85
2021/12/04 03:26:18;;;;;;;4.93;4.32;;;;;;;2.40;100.00;99676.06;5033267;28;20044;-85
2021/12/04 03:28:43;;;;;;;4.60;4.10;;;;;;;2.42;100.00;99676.84;5032559;28;20041;-85
2021/12/04 03:42:06;;;;;;;5.22;4.43;;;;;;;2.46;100.00;99656.59;5051488;28;20497;-86
2021/12/04 03:44:32;;;;;;;5.40;4.40;;;;;;;2.45;100.00;99650.47;5044141;28;20029;-86
2021/12/04 03:46:59;;;;;;;4.50;4.10;;;;;;;2.43;100.00;99641.81;5033007;28;20363;-85
2021/12/04 03:49:24;;;;;;;4.63;4.05;;;;;;;2.43;100.00;99654.94;5045680;28;20476;-85
2021/12/04 03:51:49;;;;;;;13.10;6.82;;;;;;;2.46;100.00;99653.97;5043394;28;20298;-86
2021/12/04 03:54:15;;;;;;;7.68;4.57;;;;;;;2.41;100.00;99641.00;5045215;28;20510;-86
2021/12/04 03:56:40;;;;;;;5.40;4.68;;;;;;;2.47;100.00;99646.03;5046189;28;20513;-86
2021/12/04 03:59:05;;;;;;;4.72;4.22;;;;;;;2.47;100.00;99639.94;5050461;28;20032;-86
2021/12/04 04:01:31;;;;;;;4.97;4.47;;;;;;;2.42;100.00;99633.97;5040878;28;20084;-86
2021/12/04 04:03:56;;;;;;;5.13;4.55;;;;;;;2.50;100.00;99647.69;5042644;28;20068;-86
2021/12/04 04:06:21;;;;;;;5.03;4.53;;;;;;;2.46;100.00;99638.19;5041811;28;20036;-86
2021/12/04 04:08:47;;;;;;;5.50;4.18;;;;;;;2.46;100.00;99639.06;5033727;28;20024;-86
2021/12/04 04:11:12;;;;;;;4.60;4.20;;;;;;;2.48;100.00;99636.41;5049478;28;20028;-86
2021/12/04 04:13:41;;;;;;;4.80;4.30;;;;;;;2.52;100.00;99634.50;5050009;28;20032;-85
2021/12/04 04:16:07;;;;;;;4.70;4.30;;;;;;;2.52;100.00;99624.00;5017459;28;20021;-86
2021/12/04 04:18:33;;;;;;;5.32;4.55;;;;;;;2.47;100.00;99611.91;5051227;28;20466;-86
2021/12/04 04:20:58;;;;;;;5.47;4.53;;;;;;;2.53;100.00;99620.47;5031586;28;20025;-87
2021/12/04 04:23:24;;;;;;;4.35;3.95;;;;;;;2.50;100.00;99616.16;5032918;28;20263;-86
2021/12/04 04:25:49;;;;;;;7.05;4.50;;;;;;;2.51;100.00;99628.41;5032002;28;20025;-86
2021/12/04 04:28:15;;;;;;;4.95;4.47;;;;;;;2.49;100.00;99617.09;5042234;28;20055;-86
2021/12/04 04:30:40;;;;;;;5.45;4.60;;;;;;;2.51;100.00;99617.91;5050174;28;20025;-86
2021/12/04 04:33:06;;;;;;;4.60;4.20;;;;;;;2.52;100.00;99624.88;5044722;28;20068;-87
2021/12/04 04:35:33;;;;;;;4.85;4.35;;;;;;;2.49;100.00;99617.09;5032541;28;20136;-86
2021/12/04 04:38:17;;;;;;;5.78;4.60;;;;;;;2.52;100.00;99622.22;5031332;28;20052;-86
2021/12/04 05:02:24;;;;;;;11.07;6.53;;;;;;;2.58;100.00;99608.00;5034419;28;20353;-86
2021/12/04 05:13:04;;;;;;;6.95;5.40;;;;;;;2.55;100.00;99593.22;5049167;28;20086;-87
2021/12/04 05:15:44;;;;;;;6.65;5.55;;;;;;;2.61;100.00;99600.00;5040587;28;20018;-87
2021/12/04 05:18:23;;;;;;;6.57;5.65;;;;;;;2.62;100.00;99599.09;5040989;28;20029;-87
2021/12/04 05:20:55;;;;;;;6.38;5.45;;;;;;;2.57;100.00;99574.78;5035413;28;20028;-86
2021/12/04 05:23:22;;;;;;;7.05;5.55;;;;;;;2.60;100.00;99574.66;5037901;28;20037;-86
2021/12/04 05:25:48;;;;;;;7.22;5.10;;;;;;;2.58;100.00;99571.22;5046196;28;20029;-87
2021/12/04 05:28:13;;;;;;;5.80;4.85;;;;;;;2.57;100.00;99572.16;5039972;28;20040;-87
2021/12/04 05:30:39;;;;;;;5.53;4.97;;;;;;;2.56;100.00;99573.94;5045503;28;20453;-86
2021/12/04 05:33:05;;;;;;;5.40;4.90;;;;;;;2.57;100.00;99570.38;5025485;28;20029;-85
2021/12/04 05:35:31;;;;;;;5.25;4.60;;;;;;;2.58;100.00;99579.09;5040285;28;20105;-84
2021/12/04 05:37:57;;;;;;;7.20;5.15;;;;;;;2.59;100.00;99584.31;5030355;28;20060;-86
2021/12/04 05:40:24;;;;;;;6.35;5.20;;;;;;;2.56;100.00;99575.69;5046886;28;20035;-86
2021/12/04 05:42:49;;;;;;;5.90;4.78;;;;;;;2.57;100.00;99575.63;5044688;28;20060;-87
2021/12/04 05:45:23;;;;;;;6.88;5.28;;;;;;;2.59;100.00;99572.94;5033781;28;20478;-86
2021/12/04 05:47:57;;;;;;;5.78;5.00;;;;;;;2.55;100.00;99571.34;5045807;28;20079;-86
2021/12/04 05:53:41;;;;;;;6.80;5.00;;;;;;;2.59;100.00;99578.19;5032377;28;20619;-87
2021/12/04 05:55:53;;;;;;;5.38;4.80;;;;;;;2.60;100.00;99574.66;5016902;28;20307;-87
2021/12/04 05:58:25;;;;;;;5.20;4.70;;;;;;;2.61;100.00;99576.38;5046173;28;20494;-87
2021/12/04 06:00:51;;;;;;;5.13;4.63;;;;;;;2.64;100.00;99581.53;5019208;28;20031;-86
2021/12/04 06:03:17;;;;;;;5.47;4.85;;;;;;;2.64;100.00;99576.25;5048219;28;20028;-87
2021/12/04 06:05:43;;;;;;;5.60;5.07;;;;;;;2.60;100.00;99567.63;5021955;28;20505;-87
2021/12/04 06:08:08;;;;;;;6.75;5.28;;;;;;;2.65;100.00;99573.56;5030048;28;20044;-87
2021/12/04 06:10:33;;;;;;;7.40;5.70;;;;;;;2.64;100.00;99565.75;5048992;28;20021;-86
2021/12/04 06:12:59;;;;;;;5.93;5.30;;;;;;;2.67;100.00;99561.22;5037911;28;20029;-86
2021/12/04 06:15:24;;;;;;;6.20;5.50;;;;;;;2.68;100.00;99562.09;5028649;28;20033;-86
2021/12/04 06:17:52;;;;;;;7.28;5.60;;;;;;;2.69;100.00;99561.16;5020808;28;20044;-86
2021/12/04 06:23:02;;;;;;;8.07;5.38;;;;;;;2.68;100.00;99544.56;5036781;28;20048;-86
2021/12/04 06:25:27;;;;;;;5.95;5.35;;;;;;;2.68;100.00;99562.94;5040855;28;20386;-86
2021/12/04 06:27:54;;;;;;;5.53;4.95;;;;;;;2.69;100.00;99562.03;5041807;28;20037;-85
2021/12/04 06:30:21;;;;;;;5.18;4.50;;;;;;;2.70;100.00;99557.63;5047392;28;20033;-86
2021/12/04 06:32:48;;;;;;;5.53;4.50;;;;;;;2.69;100.00;99554.13;5046952;28;20082;-86
2021/12/04 06:35:16;;;;;;;5.88;4.95;;;;;;;2.68;100.00;99552.44;5048610;28;20505;-86
2021/12/04 06:37:41;;;;;;;6.28;5.10;;;;;;;2.69;100.00;99555.91;5022822;28;20110;-86
2021/12/04 06:40:11;;;;;;;7.63;5.28;;;;;;;2.69;100.00;99559.41;5047534;28;20024;-86
2021/12/04 06:42:36;;;;;;;5.88;5.35;;;;;;;2.70;100.00;99563.72;5043708;28;20033;-86
2021/12/04 06:45:02;;;;;;;6.63;5.93;;;;;;;2.70;100.00;99560.25;5039476;28;20139;-86
2021/12/04 06:47:29;;;;;;;5.82;5.28;;;;;;;2.65;100.00;99552.53;5044385;28;20033;-85
2021/12/04 06:50:01;;;;;;;6.82;5.65;;;;;;;2.70;100.00;99562.88;5045400;28;20405;-85
2021/12/04 06:52:27;;;;;;;7.82;5.45;;;;;;;2.73;100.00;99566.25;5031470;28;20108;-85
2021/12/04 06:54:56;;;;;;;7.18;5.55;;;;;;;2.69;100.00;99564.66;5029967;28;20050;-86
2021/12/04 06:57:21;;;;;;;7.13;5.90;;;;;;;2.73;100.00;99571.50;5037492;28;20490;-86
2021/12/04 06:59:48;;;;;;;6.60;5.88;;;;;;;2.75;100.00;99574.06;5037233;28;20039;-85
2021/12/04 07:02:14;;;;;;;7.97;6.20;;;;;;;2.75;100.00;99579.31;5037067;28;20029;-86
2021/12/04 07:04:40;;;;;;;7.38;5.95;;;;;;;2.64;100.00;99555.25;5037394;28;20033;-86
2021/12/04 07:07:06;;;;;;;7.15;5.78;;;;;;;2.76;100.00;99578.41;5044071;28;20378;-86
2021/12/04 07:09:33;;;;;;;7.07;6.20;;;;;;;2.76;100.00;99575.78;5048675;28;20025;-86
2021/12/04 07:12:01;;;;;;;9.82;6.70;;;;;;;2.71;100.00;99562.81;5046262;28;20039;-86
2021/12/04 07:14:27;;;;;;;10.70;7.13;;;;;;;2.77;100.00;99571.38;5045561;28;20039;-86
2021/12/04 07:16:53;;;;;;;10.80;7.70;;;;;;;2.73;100.00;99570.66;5039008;28;20492;-86
2021/12/04 07:19:18;;;;;;;12.52;8.35;;;;;;;2.78;100.00;99573.09;5044300;28;20040;-86
2021/12/04 07:21:45;;;;;;;11.10;7.90;;;;;;;2.78;100.00;99576.56;5035993;28;20038;-86
2021/12/04 07:24:11;;;;;;;13.13;8.48;;;;;;;2.68;100.00;99555.06;5043402;28;20486;-85
2021/12/04 07:26:38;;;;;;;13.60;8.88;;;;;;;2.72;100.00;99564.53;5025110;28;20478;-85
2021/12/04 07:29:03;;;;;;;11.77;7.57;;;;;;;2.70;100.00;99555.00;5029702;28;20028;-85
2021/12/04 07:31:29;;;;;;;11.73;8.30;;;;;;;2.71;100.00;99554.06;5045440;28;20037;-86
2021/12/04 07:33:57;;;;;;;15.05;9.07;;;;;;;2.78;100.00;99567.84;5042696;28;20032;-86
2021/12/04 07:36:23;;;;;;;12.88;8.95;;;;;;;2.78;100.00;99563.44;5044249;28;20131;-86
2021/12/04 07:38:49;;;;;;;13.95;9.10;;;;;;;2.79;100.00;99564.28;5042700;28;20067;-87
2021/12/04 07:41:15;;;;;;;11.88;8.63;;;;;;;2.71;100.00;99548.81;5023729;28;20021;-86
2021/12/04 07:43:40;;;;;;;12.48;8.82;;;;;;;2.79;100.00;99554.63;5030289;28;20370;-85
2021/12/04 07:46:05;;;;;;;12.35;9.02;;;;;;;2.79;100.00;99557.25;5033436;28;20402;-86
2021/12/04 07:48:30;;;;;;;10.82;7.93;;;;;;;2.82;100.00;99556.28;5043546;28;20394;-86
2021/12/04 07:50:56;;;;;;;12.07;8.93;;;;;;;2.84;100.00;99544.78;5047999;28;20107;-86
2021/12/04 07:53:22;;;;;;;11.07;8.40;;;;;;;2.83;100.00;99540.44;5031336;28;20048;-86
2021/12/04 07:55:47;;;;;;;14.15;8.98;;;;;;;2.86;100.00;99550.00;5037260;28;20140;-85
2021/12/04 07:58:13;;;;;;;12.55;8.57;;;;;;;2.88;100.00;99545.53;5030231;28;20127;-87
2021/12/04 08:00:39;;;;;;;12.93;8.57;;;;;;;2.82;100.00;99536.13;5034852;28;20033;-87
2021/12/04 08:03:05;;;;;;;11.23;8.30;;;;;;;2.90;100.00;99546.31;5044255;28;20044;-84
2021/12/04 08:05:30;;;;;;;11.10;7.78;;;;;;;2.90;100.00;99536.66;5020452;28;20063;-86
2021/12/04 08:07:56;;;;;;;10.52;7.85;;;;;;;2.94;100.00;99547.91;5029161;28;20451;-86
2021/12/04 08:10:22;;;;;;;12.85;8.43;;;;;;;2.93;100.00;99544.44;5028338;28;20171;-85
2021/12/04 08:12:48;;;;;;;12.18;7.80;;;;;;;2.98;100.00;99537.22;5031502;28;20116;-84
2021/12/04 08:15:16;;;;;;;10.82;7.85;;;;;;;3.02;100.00;99539.72;5028943;28;20084;-86
2021/12/04 08:17:43;;;;;;;9.85;7.25;;;;;;;3.02;100.00;99534.47;5029815;28;20060;-85
2021/12/04 08:20:10;;;;;;;10.45;7.70;;;;;;;3.00;100.00;99522.22;5039730;28;20033;-84
2021/12/04 08:22:35;;;;;;;10.35;7.72;;;;;;;3.06;100.00;99518.50;5046491;28;20437;-85
2021/12/04 08:25:01;;;;;;;8.43;6.40;;;;;;;2.99;100.00;99507.38;5051082;28;20025;-85
2021/12/04 08:27:26;;;;;;;8.27;6.35;;;;;;;3.10;100.00;99527.97;5052586;28;20166;-86
2021/12/04 08:29:52;;;;;;;10.15;6.75;;;;;;;3.08;100.00;99518.44;5052404;28;20078;-89
2021/12/04 08:32:17;;;;;;;10.27;6.75;;;;;;;3.14;100.00;99524.31;5047146;28;20032;-86
2021/12/04 08:34:42;;;;;;;7.13;6.18;;;;;;;3.16;100.00;99524.22;5053097;28;20449;-85
2021/12/04 08:37:08;;;;;;;7.25;5.88;;;;;;;3.13;100.00;99514.69;5045718;28;20379;-85
2021/12/04 08:39:33;;;;;;;6.55;5.22;;;;;;;3.16;100.00;99511.94;5021157;28;20079;-86
2021/12/04 08:41:59;;;;;;;7.97;5.80;;;;;;;3.18;100.00;99509.25;5041374;28;20025;-87
2021/12/04 08:44:25;;;;;;;7.85;5.75;;;;;;;3.17;100.00;99505.75;5049550;28;20023;-87
2021/12/04 08:46:51;;;;;;;6.20;5.18;;;;;;;3.15;100.00;99499.72;5033816;28;20029;-84
2021/12/04 08:49:16;;;;;;;7.07;5.10;;;;;;;3.16;100.00;99496.16;5015023;28;20380;-85
2021/12/04 08:51:42;;;;;;;6.25;4.85;;;;;;;3.16;100.00;99484.78;5047628;28;20064;-86
2021/12/04 08:54:08;;;;;;;13.80;5.40;;;;;;;3.18;100.00;99493.47;5038874;28;20021;-86
2021/12/04 08:56:33;;;;;;;7.03;4.95;;;;;;;3.20;100.00;99491.63;5051220;28;20033;-87
2021/12/04 08:58:59;;;;;;;5.97;5.25;;;;;;;3.20;100.00;99492.47;5037498;28;20029;-84
2021/12/04 09:01:30;;;;;;;6.30;5.25;;;;;;;3.25;100.00;99487.03;5015859;28;20099;-85
2021/12/04 09:04:02;;;;;;;6.47;5.30;;;;;;;3.33;100.00;99492.81;5037053;28;20264;-85
2021/12/04 09:06:28;;;;;;;6.35;5.07;;;;;;;3.38;100.00;99480.31;5033138;28;20424;-86
2021/12/04 09:08:53;;;;;;;6.88;5.43;;;;;;;3.43;100.00;99488.88;5041823;28;20021;-85
2021/12/04 09:11:24;;;;;;;7.20;5.32;;;;;;;3.46;100.00;99490.50;5032331;28;20026;-83
2021/12/04 09:13:50;;;;;;;7.13;5.40;;;;;;;3.57;100.00;99495.31;5031384;28;20029;-85
2021/12/04 09:16:16;;;;;;;6.93;5.30;;;;;;;3.62;100.00;99481.03;5041466;28;20025;-86
2021/12/04 09:18:42;;;;;;;6.90;5.50;;;;;;;3.75;100.00;99474.28;5050133;28;20035;-81
2021/12/04 09:21:10;;;;;;;5.65;5.05;;;;;;;3.83;100.00;99466.06;5042778;28;20373;-82
2021/12/04 09:23:39;;;;;;;6.18;5.15;;;;;;;3.94;100.00;99469.06;5048608;28;20174;-82
2021/12/04 09:26:08;;;;;;;6.03;4.88;;;;;;;4.03;100.00;99466.94;5049172;28;20128;-83
2021/12/04 09:28:42;;;;;;;6.90;5.68;;;;;;;4.04;100.00;99458.97;5050714;28;20017;-83
2021/12/04 09:31:32;;;;;;;6.43;5.45;;;;;;;4.09;100.00;99450.84;5040358;28;20441;-82
2021/12/04 10:03:46;;;;;;;8.68;7.13;;;;;;;3.95;100.00;99441.81;4937075;29;20043;-83
2021/12/04 10:06:31;;;;;;;9.30;7.30;;;;;;;3.93;100.00;99438.41;4928750;29;20417;-83
2021/12/04 10:14:55;;;;;;;8.68;7.03;;;;;;;3.83;100.00;99439.75;4948799;29;20112;-83
2021/12/04 10:20:32;;;;;;;11.57;8.15;;;;;;;3.84;100.00;99430.91;4951726;28;20132;-83
2021/12/04 10:33:51;;;;;;;10.45;8.73;;;;;;;3.84;100.00;99415.13;5029025;28;20041;-82
2021/12/04 10:36:32;;;;;;;9.35;8.35;;;;;;;3.87;100.00;99412.34;5032404;28;20029;-83
2021/12/04 10:38:58;;;;;;;9.95;8.38;;;;;;;3.85;100.00;99387.91;5028688;28;20060;-84
2021/12/04 10:41:32;;;;;;;9.13;8.20;;;;;;;3.94;100.00;99390.09;5045808;28;20121;-84
2021/12/04 10:44:19;;;;;;;10.48;8.40;;;;;;;4.00;100.00;99381.88;5039612;28;20024;-83
2021/12/04 10:47:07;;;;;;;7.97;7.18;;;;;;;4.07;100.00;99381.63;5047588;28;20462;-85
2021/12/04 11:00:52;;;;;;;9.02;8.05;;;;;;;4.21;100.00;99366.00;5046367;28;20421;-83
2021/12/04 11:03:28;;;;;;;9.25;7.40;;;;;;;4.26;100.00;99356.09;5047991;28;20032;-84
2021/12/04 11:42:36;;;;;;;12.65;9.15;;;;;;;4.38;100.00;99307.22;5036866;28;20033;-85
2021/12/04 11:45:18;;;;;;;10.10;9.00;;;;;;;4.36;100.00;99304.69;5035993;28;20359;-84
2021/12/04 11:47:49;;;;;;;10.75;9.45;;;;;;;4.37;100.00;99297.63;5037245;28;20033;-88
2021/12/04 11:50:22;;;;;;;9.25;8.20;;;;;;;4.44;100.00;99296.41;5038157;28;20484;-88
2021/12/04 11:52:52;;;;;;;11.88;8.32;;;;;;;4.46;100.00;99292.72;5051733;28;20048;-88
2021/12/04 11:55:21;;;;;;;10.50;7.85;;;;;;;4.45;100.00;99283.13;5038924;28;20026;-87
2021/12/04 11:57:48;;;;;;;8.68;7.78;;;;;;;4.43;100.00;99289.41;5042912;28;20025;-84
2021/12/04 12:00:30;;;;;;;8.82;7.57;;;;;;;4.40;100.00;99286.94;5038728;28;20032;-85
2021/12/04 12:03:21;;;;;;;8.95;7.68;;;;;;;4.36;100.00;99275.69;5047537;28;20033;-83
2021/12/04 12:05:46;;;;;;;10.30;7.20;;;;;;;4.36;100.00;99280.13;5033647;28;20032;-85
2021/12/04 12:08:33;;;;;;;8.77;7.30;;;;;;;4.28;100.00;99279.66;5013994;28;20029;-84
2021/12/04 12:11:08;;;;;;;10.10;7.47;;;;;;;4.23;100.00;99271.97;5033502;28;20025;-85
2021/12/04 12:13:40;;;;;;;8.38;6.85;;;;;;;4.21;100.00;99279.94;5031990;28;20124;-85
2021/12/04 12:16:21;;;;;;;8.68;6.85;;;;;;;4.18;100.00;99281.88;5029833;28;20075;-85
2021/12/04 12:18:57;;;;;;;7.22;6.47;;;;;;;4.13;100.00;99275.97;5040978;28;20029;-85
2021/12/04 12:22:10;;;;;;;9.55;7.13;;;;;;;4.08;100.00;99276.22;5013903;28;20261;-84
2021/12/04 12:33:19;;;;;;;10.95;7.78;;;;;;;3.87;100.00;99256.22;5034202;28;20048;-87
2021/12/04 12:38:36;;;;;;;10.70;7.85;;;;;;;3.87;100.00;99279.91;5051967;28;20102;-87
2021/12/04 12:41:08;;;;;;;16.38;8.75;;;;;;;3.83;100.00;99273.94;5050785;28;20029;-88
2021/12/04 12:43:51;;;;;;;11.75;8.73;;;;;;;3.83;100.00;99286.22;5052876;28;20033;-87
2021/12/04 12:46:17;;;;;;;17.60;9.43;;;;;;;3.78;100.00;99290.88;5052050;28;20021;-85
2021/12/04 12:48:46;;;;;;;13.45;9.60;;;;;;;3.74;100.00;99293.63;5048851;28;20367;-87
2021/12/04 12:51:11;;;;;;;11.82;9.13;;;;;;;3.68;100.00;99283.44;5030971;28;20033;-86
2021/12/04 12:53:45;;;;;;;13.73;8.85;;;;;;;3.74;100.00;99279.63;5032369;28;20422;-87
2021/12/04 12:56:13;;;;;;;10.80;8.82;;;;;;;3.72;100.00;99276.22;5039115;28;20024;-86
2021/12/04 13:12:23;;;;;;;;;;;;;;;3.73;100.00;99276.16;5031700;28;20118;-89
2021/12/04 13:14:51;;;;;;;14.30;10.68;;;;;;;3.74;100.00;99269.97;5048351;28;20180;-89
2021/12/04 13:17:20;;;;;;;15.07;10.65;;;;;;;3.74;100.00;99267.31;5051677;28;20096;-87
2021/12/04 13:19:49;;;;;;;15.95;11.20;;;;;;;3.74;100.00;99269.09;5037388;28;20021;-87
2021/12/04 13:22:19;;;;;;;18.98;12.07;;;;;;;3.74;100.00;99271.75;5031128;28;20460;-86
2021/12/04 13:24:48;;;;;;;16.00;11.68;;;;;;;3.75;100.00;99263.75;5047744;28;20083;-87
2021/12/04 13:29:43;;;;;;;19.25;13.50;;;;;;;3.77;100.00;99261.06;5033769;28;20021;-87
2021/12/04 13:32:13;;;;;;;21.00;13.48;;;;;;;3.69;100.00;99250.06;5035552;28;20498;-89
2021/12/04 13:34:40;;;;;;;23.40;15.20;;;;;;;3.78;100.00;99254.03;5031860;28;20112;-88
2021/12/04 13:37:07;;;;;;;21.63;14.77;;;;;;;3.73;100.00;99254.25;5031173;28;20042;-89
2021/12/04 13:39:33;;;;;;;22.20;16.38;;;;;;;3.77;100.00;99255.81;5038788;28;20402;-89
2021/12/04 13:42:01;;;;;;;23.85;15.52;;;;;;;3.72;100.00;99248.16;5036302;28;20025;-87
2021/12/04 13:44:27;;;;;;;26.67;16.13;;;;;;;3.75;100.00;99258.50;5051708;28;20024;-89
2021/12/04 13:46:59;;;;;;;25.13;15.93;;;;;;;3.79;100.00;99266.25;5045880;28;20413;-90
2021/12/04 13:49:32;;;;;;;24.95;15.75;;;;;;;3.79;100.00;99256.56;5041870;28;20033;-91
2021/12/04 13:52:03;;;;;;;25.58;16.00;;;;;;;3.81;100.00;99262.63;5049361;28;20037;-89
2021/12/04 13:54:32;;;;;;;25.35;16.13;;;;;;;3.81;100.00;99267.06;5043956;28;20490;-88
2021/12/04 13:56:58;;;;;;;24.75;15.90;;;;;;;3.83;100.00;99254.66;5029661;28;20044;-88
2021/12/04 13:59:26;;;;;;;24.63;15.38;;;;;;;3.78;100.00;99257.50;5039133;28;20029;-88
2021/12/04 14:01:53;;;;;;;23.25;15.02;;;;;;;3.80;100.00;99263.53;5049689;28;20462;-87
2021/12/04 14:04:19;;;;;;;25.40;16.20;;;;;;;3.78;100.00;99248.78;5049096;28;20398;-86
2021/12/04 14:06:51;;;;;;;24.73;15.27;;;;;;;3.79;100.00;99253.09;5049358;28;20108;-86
2021/12/04 14:09:16;;;;;;;26.33;15.45;;;;;;;3.80;100.00;99252.16;5048254;28;20024;-85
2021/12/04 14:11:42;;;;;;;27.17;16.70;;;;;;;3.84;100.00;99262.47;5048014;28;20033;-87
2021/12/04 14:14:16;;;;;;;28.40;17.42;;;;;;;3.85;100.00;99252.81;5020147;28;20029;-87
2021/12/04 14:16:42;;;;;;;25.65;15.73;;;;;;;3.86;100.00;99252.72;5037424;28;20389;-87
2021/12/04 14:19:16;;;;;;;26.20;16.40;;;;;;;3.86;100.00;99255.38;5013912;28;20021;-87
2021/12/04 14:21:50;;;;;;;28.90;16.63;;;;;;;3.87;100.00;99251.78;5030261;28;20367;-86
2021/12/04 14:24:24;;;;;;;27.23;17.10;;;;;;;3.89;100.00;99263.13;5044322;28;20382;-86
2021/12/04 14:26:54;;;;;;;28.10;16.85;;;;;;;3.91;100.00;99268.28;5029580;28;20029;-86
2021/12/04 14:29:19;;;;;;;28.00;17.30;;;;;;;3.85;100.00;99258.94;5038401;28;20023;-87
2021/12/04 14:31:47;;;;;;;31.58;18.45;;;;;;;3.84;100.00;99265.09;5042509;28;20506;-85
2021/12/04 14:34:23;;;;;;;27.25;17.70;;;;;;;3.84;100.00;99269.50;5043104;28;20370;-85
2021/12/04 14:36:59;;;;;;;28.65;17.42;;;;;;;3.83;100.00;99273.94;5038348;28;20045;-86
2021/12/04 14:39:24;;;;;;;31.17;17.35;;;;;;;3.82;100.00;99274.00;5030587;28;20489;-86